createdAt,value
2023-03-04T00:01:54.996Z,62.95
2023-03-04T00:07:19.329Z,62.81
2023-03-04T00:12:43.178Z,62.78
2023-03-04T00:18:07.487Z,63.11
2023-03-04T00:23:31.624Z,62.74
2023-03-04T00:28:55.617Z,62.71
2023-03-04T00:34:20.570Z,62.61
2023-03-04T00:39:45.047Z,63.15
2023-03-04T00:45:09.897Z,62.86
2023-03-04T00:50:34.054Z,63.23
2023-03-04T00:55:57.771Z,63.33
2023-03-04T01:01:21.872Z,63.03
2023-03-04T01:06:46.479Z,62.51
2023-03-04T01:12:11.114Z,62.11
2023-03-04T01:17:35.222Z,62.55
2023-03-04T01:22:58.991Z,62.19
2023-03-04T01:28:23.434Z,62.75
2023-03-04T01:33:47.290Z,62.80
2023-03-04T01:39:11.796Z,63.13
2023-03-04T01:44:36.052Z,62.77
2023-03-04T01:50:03.791Z,63.14
2023-03-04T01:55:29.198Z,62.57
2023-03-04T02:00:53.209Z,62.46
2023-03-04T02:06:17.162Z,62.31
2023-03-04T02:11:41.957Z,62.59
2023-03-04T02:17:12.837Z,62.54
2023-03-04T02:22:43.604Z,62.66
2023-03-04T02:28:07.543Z,62.47
2023-03-04T02:33:31.898Z,62.66
2023-03-04T02:39:01.507Z,62.46
2023-03-04T02:44:33.247Z,62.63
2023-03-04T02:49:57.971Z,62.10
2023-03-04T02:55:22.082Z,61.91
2023-03-04T03:00:45.691Z,61.79
2023-03-04T03:06:10.439Z,62.00
2023-03-04T03:11:35.028Z,61.91
2023-03-04T03:17:00.910Z,61.84
2023-03-04T03:22:25.818Z,61.77
2023-03-04T03:27:50.744Z,61.32
2023-03-04T03:33:15.157Z,61.04
2023-03-04T03:38:39.220Z,60.97
2023-03-04T03:44:03.412Z,60.71
2023-03-04T03:49:28.046Z,60.19
2023-03-04T03:54:52.327Z,59.98
2023-03-04T04:00:17.329Z,59.88
2023-03-04T04:05:41.578Z,59.65
2023-03-04T04:11:05.833Z,59.73
2023-03-04T04:16:29.916Z,59.98
2023-03-04T04:21:54.204Z,59.74
2023-03-04T04:27:18.379Z,59.90
2023-03-04T04:32:42.037Z,59.79
2023-03-04T04:38:06.916Z,59.86
2023-03-04T04:43:31.175Z,60.12
2023-03-04T04:48:55.465Z,59.95
2023-03-04T04:54:20.262Z,59.78
2023-03-04T04:59:44.463Z,59.88
2023-03-04T05:05:08.382Z,64.28
2023-03-04T05:10:32.485Z,62.47
2023-03-04T05:15:57.651Z,61.37
2023-03-04T05:21:21.922Z,60.83
2023-03-04T05:26:46.363Z,60.65
2023-03-04T05:32:10.866Z,60.50
2023-03-04T05:37:35.210Z,60.77
2023-03-04T05:42:59.512Z,60.62
2023-03-04T05:48:24.239Z,60.22
2023-03-04T05:53:48.145Z,60.45
2023-03-04T05:59:12.919Z,60.69
2023-03-04T06:04:37.343Z,60.23
2023-03-04T06:10:01.170Z,59.90
2023-03-04T06:15:25.120Z,59.88
2023-03-04T06:20:48.959Z,59.81
2023-03-04T06:26:15.854Z,59.91
2023-03-04T06:31:42.577Z,59.87
2023-03-04T06:37:06.731Z,60.24
2023-03-04T06:42:31.212Z,60.72
2023-03-04T06:47:55.173Z,60.81
2023-03-04T06:53:19.491Z,60.77
2023-03-04T06:58:44.918Z,61.19
2023-03-04T07:04:10.039Z,61.64
2023-03-04T07:09:34.691Z,62.17
2023-03-04T07:14:58.715Z,62.32
2023-03-04T07:20:22.878Z,62.66
2023-03-04T07:25:47.071Z,62.83
2023-03-04T07:31:12.412Z,63.36
2023-03-04T07:36:37.945Z,63.54
2023-03-04T07:42:02.475Z,63.75
2023-03-04T07:47:26.608Z,64.08
2023-03-04T07:52:51.432Z,63.93
2023-03-04T07:58:33.495Z,63.69
2023-03-04T08:04:15.302Z,63.71
2023-03-04T08:09:57.593Z,63.71
2023-03-04T08:15:43.561Z,63.72
2023-03-04T08:21:26.946Z,63.77
2023-03-04T08:26:51.162Z,63.97
2023-03-04T08:32:15.180Z,63.94
2023-03-04T08:37:39.495Z,64.15
2023-03-04T08:43:04.108Z,64.24
2023-03-04T08:48:28.670Z,64.24
2023-03-04T08:53:52.726Z,64.17
2023-03-04T08:59:16.468Z,64.40
2023-03-04T09:04:41.102Z,64.65
2023-03-04T09:10:05.900Z,65.10
2023-03-04T09:16:14.918Z,65.08
2023-03-04T09:22:14.112Z,65.14
2023-03-04T09:28:13.360Z,65.27
2023-03-04T09:34:12.373Z,65.04
2023-03-04T09:39:53.534Z,64.69
2023-03-04T09:45:24.336Z,64.77
2023-03-04T09:51:04.025Z,65.10
2023-03-04T09:56:29.696Z,64.85
2023-03-04T10:01:59.908Z,64.63
2023-03-04T10:07:34.859Z,64.73
2023-03-04T10:13:01.831Z,65.10
2023-03-04T10:18:39.432Z,65.02
2023-03-04T10:24:18.395Z,64.84
2023-03-04T10:29:43.386Z,65.08
2023-03-04T10:35:12.759Z,65.20
2023-03-04T10:40:43.056Z,65.34
2023-03-04T10:46:12.812Z,65.27
2023-03-04T10:52:27.996Z,65.11
2023-03-04T10:57:58.072Z,64.88
2023-03-04T11:03:29.917Z,64.78
2023-03-04T11:08:57.055Z,64.76
2023-03-04T11:14:37.856Z,64.69
2023-03-04T11:20:29.267Z,64.39
2023-03-04T11:26:01.657Z,64.33
2023-03-04T11:31:55.752Z,63.76
2023-03-04T11:37:35.945Z,64.00
2023-03-04T11:43:14.590Z,63.80
2023-03-04T11:48:46.826Z,63.98
2023-03-04T11:54:26.219Z,64.31
2023-03-04T12:00:27.756Z,64.55
2023-03-04T12:06:06.580Z,64.04
2023-03-04T12:12:12.417Z,63.47
2023-03-04T12:17:39.170Z,62.71
2023-03-04T12:23:30.760Z,62.54
2023-03-04T12:29:15.926Z,62.51
2023-03-04T12:35:09.621Z,62.49
2023-03-04T12:40:44.068Z,61.97
2023-03-04T12:46:16.797Z,61.75
2023-03-04T12:51:55.819Z,61.93
2023-03-04T12:57:23.419Z,62.62
2023-03-04T13:02:50.708Z,63.07
2023-03-04T13:08:34.997Z,63.25
2023-03-04T13:14:15.479Z,63.26
2023-03-04T13:19:51.483Z,63.20
2023-03-04T13:25:32.172Z,62.92
2023-03-04T13:30:56.937Z,62.54
2023-03-04T13:36:33.276Z,62.56
2023-03-04T13:41:57.378Z,62.56
2023-03-04T13:47:31.067Z,62.68
2023-03-04T13:53:01.263Z,63.26
2023-03-04T13:58:27.708Z,63.12
2023-03-04T14:03:52.220Z,63.45
2023-03-04T14:09:36.127Z,63.20
2023-03-04T14:15:24.909Z,63.02
2023-03-04T14:20:50.514Z,63.02
2023-03-04T14:26:18.575Z,63.63
2023-03-04T14:31:43.029Z,63.55
2023-03-04T14:37:31.906Z,63.63
2023-03-04T14:43:20.294Z,63.44
2023-03-04T14:48:50.909Z,63.22
2023-03-04T14:54:32.198Z,63.03
2023-03-04T14:59:56.799Z,62.81
2023-03-04T15:05:29.686Z,62.75
2023-03-04T15:11:00.153Z,62.60
2023-03-04T15:16:26.447Z,62.56
2023-03-04T15:21:50.778Z,62.52
2023-03-04T15:27:17.464Z,62.42
2023-03-04T15:32:42.584Z,62.37
2023-03-04T15:38:08.817Z,62.41
2023-03-04T15:43:33.189Z,61.72
2023-03-04T15:48:57.154Z,61.10
2023-03-04T15:54:23.037Z,60.75
2023-03-04T15:59:48.204Z,60.12
2023-03-04T16:05:13.097Z,59.78
2023-03-04T16:10:37.850Z,59.74
2023-03-04T16:16:01.916Z,60.15
2023-03-04T16:21:26.435Z,60.18
2023-03-04T16:26:50.473Z,60.26
2023-03-04T16:32:15.436Z,60.54
2023-03-04T16:37:40.782Z,60.29
2023-03-04T16:43:04.878Z,59.64
2023-03-04T16:48:28.912Z,59.78
2023-03-04T16:53:56.921Z,63.70
2023-03-04T16:59:21.602Z,61.25
2023-03-04T17:04:48.162Z,59.65
2023-03-04T17:10:16.971Z,63.60
2023-03-04T17:15:43.181Z,61.08
2023-03-04T17:21:11.316Z,59.23
2023-03-04T17:26:35.370Z,61.83
2023-03-04T17:31:59.419Z,64.02
2023-03-04T17:37:24.517Z,61.03
2023-03-04T17:42:49.212Z,60.07
2023-03-04T17:48:15.462Z,60.42
2023-03-04T17:53:40.359Z,60.42
2023-03-04T17:59:11.199Z,60.31
2023-03-04T18:04:35.964Z,60.63
2023-03-04T18:10:00.614Z,60.82
2023-03-04T18:15:25.271Z,60.65
2023-03-04T18:20:49.577Z,60.37
2023-03-04T18:26:14.300Z,60.17
2023-03-04T18:31:38.623Z,60.01
2023-03-04T18:37:03.029Z,59.94
2023-03-04T18:42:27.518Z,60.46
2023-03-04T18:47:55.872Z,60.64
2023-03-04T18:53:19.982Z,59.61
2023-03-04T18:58:47.190Z,61.00
2023-03-04T19:04:12.396Z,63.48
2023-03-04T19:09:36.926Z,61.11
2023-03-04T19:15:01.651Z,59.62
2023-03-04T19:20:26.793Z,59.79
2023-03-04T19:25:50.668Z,64.21
2023-03-04T19:31:14.920Z,61.91
2023-03-04T19:36:39.510Z,59.79
2023-03-04T19:42:03.381Z,60.37
2023-03-04T19:47:28.475Z,64.34
2023-03-04T19:52:53.115Z,61.77
2023-03-04T19:58:17.292Z,60.65
2023-03-04T20:03:41.916Z,59.37
2023-03-04T20:09:06.770Z,61.77
2023-03-04T20:14:32.763Z,63.60
2023-03-04T20:19:58.034Z,60.97
2023-03-04T20:25:24.403Z,59.67
2023-03-04T20:30:49.236Z,59.38
2023-03-04T20:36:13.660Z,63.87
2023-03-04T20:41:38.317Z,62.70
2023-03-04T20:47:03.413Z,60.96
2023-03-04T20:52:28.088Z,60.13
2023-03-04T20:57:53.789Z,60.03
2023-03-04T21:03:19.358Z,59.63
2023-03-04T21:08:44.459Z,59.87
2023-03-04T21:14:16.099Z,64.09
2023-03-04T21:19:43.698Z,62.58
2023-03-04T21:25:08.500Z,61.44
2023-03-04T21:30:32.741Z,60.87
2023-03-04T21:35:56.877Z,60.46
2023-03-04T21:41:23.468Z,60.00
2023-03-04T21:46:48.576Z,59.87
2023-03-04T21:52:13.328Z,59.76
2023-03-04T21:57:38.110Z,59.61
2023-03-04T22:03:02.562Z,59.37
2023-03-04T22:08:26.863Z,59.61
2023-03-04T22:13:56.380Z,64.72
2023-03-04T22:19:20.483Z,62.77
2023-03-04T22:24:44.613Z,61.84
2023-03-04T22:30:10.363Z,60.09
2023-03-04T22:35:35.209Z,52.69
2023-03-04T22:40:59.808Z,52.29
2023-03-04T22:46:29.490Z,58.28
2023-03-04T22:51:53.831Z,57.25
2023-03-04T22:57:17.951Z,62.81
2023-03-04T23:02:43.247Z,69.67
2023-03-04T23:08:07.931Z,66.30
2023-03-04T23:13:33.962Z,62.86
2023-03-04T23:18:59.779Z,60.78
2023-03-04T23:24:26.841Z,59.86
2023-03-04T23:29:51.683Z,52.56
2023-03-04T23:35:16.417Z,49.11
2023-03-04T23:40:41.119Z,50.05
2023-03-04T23:46:05.476Z,51.98
2023-03-04T23:51:30.659Z,55.55
2023-03-04T23:56:54.840Z,66.15
